Terminal Aerodrome Forecast
Issued by NWS Lake Charles, LA

Home | Current Version | Previous Version | Text Only | Print | Product List | Glossary On
Versions: 1 2 3 4 5 6 7 8 9 10 11 12 13 14 15 16 17 18 19 20 21 22 23 24
000
FTUS44 KLCH 210345 AAB
TAFLCH
TAF AMD
KLCH 210345Z 2104/2124 14012KT 4SM -TSRA OVC004CB
      TEMPO 2104/2107 VRB25G35KT 1SM TSRA SCT006 OVC016CB
     FM210900 VRB04KT 1/2SM FG OVC003
     FM211600 22007KT P6SM OVC015=

USA.gov is the U.S. government's official web portal to all federal, state and local government web resources and services.